Time;durP1;ratioP1;P1;durP2;ratioP2;P2;SDS_P1;SDS_P2;PMS_P1;PMS_P2;Temp;Humidity;BMP_temperature;BMP_pressure;BME280_temperature;BME280_humidity;BME280_pressure;Samples;Min_cycle;Max_cycle;Signal;HPM_P1;HPM_P2
2022/09/30 00:00:55;;;;;;;;;;;11.90;93.90;;;;;;5085374;28;19935;-77
2022/09/30 00:03:22;;;;;;;;;;;11.90;93.90;;;;;;5087352;28;19928;-76
2022/09/30 00:05:55;;;;;;;;;;;11.80;93.90;;;;;;5084072;28;19956;-78
2022/09/30 00:08:21;;;;;;;;;;;11.80;93.90;;;;;;5085540;28;19933;-78
2022/09/30 00:10:48;;;;;;;;;;;11.80;93.90;;;;;;5084410;28;19935;-77
2022/09/30 00:13:15;;;;;;;;;;;11.80;94.00;;;;;;5084475;28;20668;-78
2022/09/30 00:15:46;;;;;;;;;;;11.80;94.00;;;;;;5086366;28;19932;-78
2022/09/30 00:18:12;;;;;;;;;;;11.80;94.00;;;;;;5086453;28;19939;-77
2022/09/30 00:20:39;;;;;;;;;;;11.80;94.00;;;;;;5082974;28;19936;-77
2022/09/30 00:23:05;;;;;;;;;;;11.80;94.00;;;;;;5086308;28;19939;-78
2022/09/30 00:25:32;;;;;;;;;;;11.70;94.00;;;;;;5087126;28;19928;-77
2022/09/30 00:27:58;;;;;;;;;;;11.70;94.00;;;;;;5086428;28;19935;-77
2022/09/30 00:30:25;;;;;;;;;;;11.80;94.10;;;;;;5085004;28;19932;-77
2022/09/30 00:32:53;;;;;;;;;;;11.80;94.10;;;;;;5085332;28;19935;-77
2022/09/30 00:35:20;;;;;;;;;;;11.70;94.10;;;;;;5085288;28;19936;-78
2022/09/30 00:37:46;;;;;;;;;;;11.70;94.10;;;;;;5084726;28;19934;-77
2022/09/30 00:40:13;;;;;;;;;;;11.60;94.10;;;;;;5086046;28;19931;-78
2022/09/30 00:42:39;;;;;;;;;;;11.70;94.10;;;;;;5081210;28;19932;-78
2022/09/30 00:45:09;;;;;;;;;;;11.70;94.10;;;;;;5076305;28;19928;-77
2022/09/30 00:47:40;;;;;;;;;;;11.70;94.10;;;;;;5084743;28;19928;-78
2022/09/30 00:50:13;;;;;;;;;;;11.70;94.20;;;;;;5079752;28;19955;-77
2022/09/30 00:52:40;;;;;;;;;;;11.70;94.20;;;;;;5084998;28;19924;-78
2022/09/30 00:55:09;;;;;;;;;;;11.60;94.10;;;;;;5085944;28;19939;-77
2022/09/30 00:57:36;;;;;;;;;;;11.60;94.20;;;;;;5078606;28;19928;-77
2022/09/30 01:00:04;;;;;;;;;;;11.60;94.20;;;;;;5084853;28;20015;-78
2022/09/30 01:02:31;;;;;;;;;;;11.60;94.20;;;;;;5085828;28;19927;-78
2022/09/30 01:04:58;;;;;;;;;;;11.60;94.20;;;;;;5085551;28;19996;-77
2022/09/30 01:07:27;;;;;;;;;;;11.60;94.20;;;;;;5082008;28;19928;-76
2022/09/30 01:09:53;;;;;;;;;;;11.60;94.20;;;;;;5079936;28;19928;-77
2022/09/30 01:12:22;;;;;;;;;;;11.60;94.20;;;;;;5078443;28;20094;-77
2022/09/30 01:14:52;;;;;;;;;;;11.50;94.20;;;;;;5082937;28;19955;-77
2022/09/30 01:17:22;;;;;;;;;;;11.50;94.20;;;;;;5082622;28;20485;-76
2022/09/30 01:20:20;;;;;;;;;;;11.50;94.20;;;;;;5081627;28;19928;-77
2022/09/30 01:22:54;;;;;;;;;;;11.50;94.30;;;;;;5082147;28;19928;-78
2022/09/30 01:25:35;;;;;;;;;;;11.40;94.30;;;;;;5082119;28;19935;-77
2022/09/30 01:28:17;;;;;;;;;;;11.40;94.30;;;;;;5076942;28;19928;-78
2022/09/30 01:30:49;;;;;;;;;;;11.50;94.30;;;;;;5078428;28;20130;-77
2022/09/30 01:33:21;;;;;;;;;;;11.40;94.30;;;;;;5080528;28;20083;-76
2022/09/30 01:35:54;;;;;;;;;;;11.40;94.30;;;;;;5083972;28;19989;-76
2022/09/30 01:38:28;;;;;;;;;;;11.40;94.30;;;;;;5081002;28;19928;-77
2022/09/30 01:41:00;;;;;;;;;;;11.40;94.40;;;;;;5080221;28;19967;-77
2022/09/30 01:43:30;;;;;;;;;;;11.40;94.40;;;;;;5077561;28;19932;-77
2022/09/30 01:46:01;;;;;;;;;;;11.40;94.40;;;;;;5081547;28;19928;-77
2022/09/30 01:48:31;;;;;;;;;;;11.30;94.30;;;;;;5080936;28;19939;-78
2022/09/30 01:50:59;;;;;;;;;;;11.30;94.30;;;;;;5081149;28;19928;-77
2022/09/30 01:53:31;;;;;;;;;;;11.30;94.40;;;;;;5082714;28;19928;-77
2022/09/30 01:56:00;;;;;;;;;;;11.30;94.40;;;;;;5081357;28;20684;-77
2022/09/30 01:58:31;;;;;;;;;;;11.30;94.40;;;;;;5079199;28;19932;-77
2022/09/30 02:01:01;;;;;;;;;;;11.30;94.40;;;;;;5082143;28;19928;-78
2022/09/30 02:03:30;;;;;;;;;;;11.30;94.50;;;;;;5082596;28;19928;-77
2022/09/30 02:06:01;;;;;;;;;;;11.20;94.50;;;;;;5082574;28;19929;-77
2022/09/30 02:08:30;;;;;;;;;;;11.20;94.50;;;;;;5081915;28;19932;-77
2022/09/30 02:10:58;;;;;;;;;;;11.20;94.50;;;;;;5080020;28;19928;-78
2022/09/30 02:13:28;;;;;;;;;;;11.20;94.50;;;;;;5080245;28;19928;-76
2022/09/30 02:15:57;;;;;;;;;;;11.20;94.60;;;;;;5080929;28;19928;-76
2022/09/30 02:18:28;;;;;;;;;;;11.20;94.50;;;;;;5083072;28;19924;-77
2022/09/30 02:20:58;;;;;;;;;;;11.20;94.60;;;;;;5083220;28;19928;-77
2022/09/30 02:23:27;;;;;;;;;;;11.20;94.60;;;;;;5078254;28;19939;-76
2022/09/30 02:25:56;;;;;;;;;;;11.20;94.60;;;;;;5081897;28;19933;-76
2022/09/30 02:28:25;;;;;;;;;;;11.10;94.60;;;;;;5082998;28;19981;-78
2022/09/30 02:30:53;;;;;;;;;;;11.10;94.60;;;;;;5081342;28;19928;-77
2022/09/30 02:33:23;;;;;;;;;;;11.10;94.60;;;;;;5083497;28;19932;-78
2022/09/30 02:35:52;;;;;;;;;;;11.10;94.60;;;;;;5082803;28;19943;-77
2022/09/30 02:38:21;;;;;;;;;;;11.10;94.60;;;;;;5074493;28;19952;-78
2022/09/30 02:40:50;;;;;;;;;;;11.10;94.60;;;;;;5082818;28;20376;-78
2022/09/30 02:43:19;;;;;;;;;;;11.10;94.60;;;;;;5077034;28;19928;-77
2022/09/30 02:45:47;;;;;;;;;;;11.10;94.70;;;;;;5078877;28;20496;-78
2022/09/30 02:48:18;;;;;;;;;;;11.10;94.70;;;;;;5080243;28;19935;-78
2022/09/30 02:50:48;;;;;;;;;;;11.10;94.70;;;;;;5076886;28;21164;-77
2022/09/30 02:53:21;;;;;;;;;;;11.00;94.60;;;;;;5081099;28;19928;-77
2022/09/30 02:56:00;;;;;;;;;;;11.00;94.70;;;;;;5081048;28;19928;-76
2022/09/30 02:58:28;;;;;;;;;;;11.00;94.70;;;;;;5076352;28;19932;-77
2022/09/30 03:00:54;;;;;;;;;;;11.00;94.70;;;;;;5083216;28;19932;-77
2022/09/30 03:03:22;;;;;;;;;;;11.00;94.70;;;;;;5083854;28;20591;-79
2022/09/30 03:05:49;;;;;;;;;;;11.00;94.70;;;;;;5080798;28;19928;-79
2022/09/30 03:08:16;;;;;;;;;;;11.00;94.80;;;;;;5083645;28;19931;-79
2022/09/30 03:10:45;;;;;;;;;;;11.00;94.80;;;;;;5084255;28;19928;-79
2022/09/30 03:13:26;;;;;;;;;;;11.00;94.70;;;;;;5080319;28;19936;-79
2022/09/30 03:16:02;;;;;;;;;;;11.00;94.80;;;;;;5077212;28;19939;-78
2022/09/30 03:18:35;;;;;;;;;;;10.90;94.70;;;;;;5075747;28;19928;-78
2022/09/30 03:21:08;;;;;;;;;;;10.90;94.80;;;;;;5081102;28;20023;-79
2022/09/30 03:23:51;;;;;;;;;;;10.90;94.80;;;;;;5077040;28;19967;-78
2022/09/30 03:26:26;;;;;;;;;;;10.90;94.80;;;;;;5075605;28;19935;-79
2022/09/30 03:29:01;;;;;;;;;;;10.90;95.10;;;;;;5074717;28;20127;-78
2022/09/30 03:31:33;;;;;;;;;;;10.90;94.80;;;;;;5077416;28;19951;-77
2022/09/30 03:34:02;;;;;;;;;;;10.90;94.80;;;;;;5080735;28;19928;-76
2022/09/30 03:36:31;;;;;;;;;;;10.90;94.80;;;;;;5080905;28;19936;-77
2022/09/30 03:39:01;;;;;;;;;;;10.80;94.80;;;;;;5077441;28;19975;-77
2022/09/30 03:41:31;;;;;;;;;;;10.90;94.80;;;;;;5077863;28;20447;-76
2022/09/30 03:44:02;;;;;;;;;;;10.90;94.80;;;;;;5080899;28;19936;-78
2022/09/30 03:46:32;;;;;;;;;;;10.90;94.80;;;;;;5078453;28;19928;-77
2022/09/30 03:49:01;;;;;;;;;;;10.80;94.80;;;;;;5077213;28;19935;-76
2022/09/30 03:51:29;;;;;;;;;;;10.80;94.80;;;;;;5077715;28;19934;-76
2022/09/30 03:53:56;;;;;;;;;;;10.80;94.90;;;;;;5079872;28;19979;-77
2022/09/30 03:56:27;;;;;;;;;;;10.80;94.80;;;;;;5079294;28;19933;-76
2022/09/30 03:58:55;;;;;;;;;;;10.80;94.90;;;;;;5081814;28;19928;-77
2022/09/30 04:01:22;;;;;;;;;;;10.80;94.90;;;;;;5081757;28;20316;-76
2022/09/30 04:03:51;;;;;;;;;;;10.80;94.90;;;;;;5079419;28;19939;-77
2022/09/30 04:06:18;;;;;;;;;;;10.80;94.90;;;;;;5080353;28;20022;-77
2022/09/30 04:08:44;;;;;;;;;;;10.70;94.80;;;;;;5080081;28;19932;-78
2022/09/30 04:11:11;;;;;;;;;;;10.80;94.90;;;;;;5079951;28;21995;-76
2022/09/30 04:13:38;;;;;;;;;;;10.70;94.90;;;;;;5081652;28;19928;-77
2022/09/30 04:16:06;;;;;;;;;;;10.70;94.90;;;;;;5082284;28;20404;-76
2022/09/30 04:18:34;;;;;;;;;;;10.70;94.90;;;;;;5079994;28;19928;-76
2022/09/30 04:21:04;;;;;;;;;;;10.70;94.90;;;;;;5079863;28;19939;-77
2022/09/30 04:23:31;;;;;;;;;;;10.70;95.20;;;;;;5083496;28;19928;-77
2022/09/30 04:25:57;;;;;;;;;;;10.70;94.90;;;;;;5078661;28;20404;-78
2022/09/30 04:28:24;;;;;;;;;;;10.70;94.90;;;;;;5079163;28;19928;-77
2022/09/30 04:30:50;;;;;;;;;;;10.70;94.90;;;;;;5078201;28;20064;-77
2022/09/30 04:33:18;;;;;;;;;;;10.60;94.90;;;;;;5077593;28;19928;-78
2022/09/30 04:35:45;;;;;;;;;;;10.60;94.90;;;;;;5082024;28;19932;-78
2022/09/30 04:38:12;;;;;;;;;;;10.60;94.90;;;;;;5082401;28;19927;-76
2022/09/30 04:40:38;;;;;;;;;;;10.60;94.90;;;;;;5081597;28;19925;-77
2022/09/30 04:43:05;;;;;;;;;;;10.60;94.90;;;;;;5080610;28;19947;-77
2022/09/30 04:45:31;;;;;;;;;;;10.50;94.90;;;;;;5078368;28;19932;-77
2022/09/30 04:47:58;;;;;;;;;;;10.50;94.90;;;;;;5079521;28;19932;-76
2022/09/30 04:50:26;;;;;;;;;;;10.60;94.90;;;;;;5077293;28;19932;-77
2022/09/30 04:52:54;;;;;;;;;;;10.50;94.90;;;;;;5075990;28;19971;-77
2022/09/30 04:55:21;;;;;;;;;;;10.50;94.90;;;;;;5082745;28;19943;-76
2022/09/30 04:57:49;;;;;;;;;;;10.50;94.90;;;;;;5083884;28;19928;-78
2022/09/30 05:00:15;;;;;;;;;;;10.50;94.90;;;;;;5081604;28;19939;-77
2022/09/30 05:02:42;;;;;;;;;;;10.50;95.00;;;;;;5080599;28;19928;-78
2022/09/30 05:05:09;;;;;;;;;;;10.50;95.00;;;;;;5077948;28;19948;-78
2022/09/30 05:07:37;;;;;;;;;;;10.40;95.00;;;;;;5071832;28;19935;-78
2022/09/30 05:10:04;;;;;;;;;;;10.40;95.00;;;;;;5080227;28;19935;-77
2022/09/30 05:12:31;;;;;;;;;;;10.40;95.00;;;;;;5076860;28;19950;-80
2022/09/30 05:14:58;;;;;;;;;;;10.40;95.00;;;;;;5080848;28;20528;-78
2022/09/30 05:17:25;;;;;;;;;;;10.40;95.00;;;;;;5082039;28;19927;-77
2022/09/30 05:19:52;;;;;;;;;;;10.40;95.00;;;;;;5082113;28;20198;-78
2022/09/30 05:22:18;;;;;;;;;;;10.40;95.00;;;;;;5077597;28;19994;-80
2022/09/30 05:24:46;;;;;;;;;;;10.40;95.00;;;;;;5084946;28;19940;-79
2022/09/30 05:27:13;;;;;;;;;;;10.40;95.00;;;;;;5085187;28;20702;-80
2022/09/30 05:29:39;;;;;;;;;;;10.30;95.00;;;;;;5085478;28;19928;-79
2022/09/30 05:32:06;;;;;;;;;;;10.40;95.00;;;;;;5085126;28;20441;-79
2022/09/30 05:34:33;;;;;;;;;;;10.30;95.00;;;;;;5082984;28;19924;-80
2022/09/30 05:36:59;;;;;;;;;;;10.30;95.00;;;;;;5084858;28;19928;-79
2022/09/30 05:39:26;;;;;;;;;;;10.30;95.00;;;;;;5086728;28;19932;-79
2022/09/30 05:41:55;;;;;;;;;;;10.30;95.00;;;;;;5079925;28;19936;-80
2022/09/30 05:44:22;;;;;;;;;;;10.30;95.10;;;;;;5080129;28;20201;-79
2022/09/30 05:46:48;;;;;;;;;;;10.30;95.00;;;;;;5082041;28;20392;-79
2022/09/30 05:49:15;;;;;;;;;;;10.30;95.00;;;;;;5076335;28;19939;-79
2022/09/30 05:51:42;;;;;;;;;;;10.30;95.10;;;;;;5080510;28;20014;-77
2022/09/30 05:54:09;;;;;;;;;;;10.30;95.10;;;;;;5082965;28;19951;-79
2022/09/30 05:56:37;;;;;;;;;;;10.20;95.00;;;;;;5078688;28;20566;-78
2022/09/30 05:59:05;;;;;;;;;;;10.30;95.40;;;;;;5081891;28;19974;-76
2022/09/30 06:01:32;;;;;;;;;;;10.30;95.10;;;;;;5081235;28;20762;-78
2022/09/30 06:03:58;;;;;;;;;;;10.30;95.10;;;;;;5077991;28;19928;-78
2022/09/30 06:06:25;;;;;;;;;;;10.20;95.10;;;;;;5082273;28;19932;-78
2022/09/30 06:08:52;;;;;;;;;;;10.30;95.10;;;;;;5078516;28;20150;-79
2022/09/30 06:11:20;;;;;;;;;;;10.20;95.10;;;;;;5081218;28;19935;-78
2022/09/30 06:13:47;;;;;;;;;;;10.20;95.10;;;;;;5075942;28;19928;-77
2022/09/30 06:16:17;;;;;;;;;;;10.20;95.10;;;;;;5080355;28;19932;-78
2022/09/30 06:18:44;;;;;;;;;;;10.20;95.20;;;;;;5075571;28;19928;-77
2022/09/30 06:21:11;;;;;;;;;;;10.20;95.20;;;;;;5073977;28;19950;-79
2022/09/30 06:23:38;;;;;;;;;;;10.20;95.20;;;;;;5075355;28;19928;-79
2022/09/30 06:26:07;;;;;;;;;;;10.20;95.20;;;;;;5075568;28;19932;-78
2022/09/30 06:28:34;;;;;;;;;;;10.20;95.20;;;;;;5077624;28;19928;-79
2022/09/30 06:31:01;;;;;;;;;;;10.20;95.20;;;;;;5074632;28;19940;-79
2022/09/30 06:33:29;;;;;;;;;;;10.20;95.20;;;;;;5068299;28;19933;-78
2022/09/30 06:35:56;;;;;;;;;;;10.20;95.20;;;;;;5077104;28;19938;-79
2022/09/30 06:38:22;;;;;;;;;;;10.20;95.20;;;;;;5078197;28;19935;-77
2022/09/30 06:40:49;;;;;;;;;;;10.30;95.20;;;;;;5076921;28;19928;-78
2022/09/30 06:43:16;;;;;;;;;;;10.20;95.10;;;;;;5074142;28;19932;-78
2022/09/30 06:45:44;;;;;;;;;;;10.30;95.10;;;;;;5073147;28;20412;-77
2022/09/30 06:48:11;;;;;;;;;;;10.20;95.10;;;;;;5076492;28;19938;-76
2022/09/30 06:50:40;;;;;;;;;;;10.30;95.10;;;;;;5074111;28;19932;-78
2022/09/30 06:53:07;;;;;;;;;;;10.30;95.10;;;;;;5077485;28;19943;-77
2022/09/30 06:55:35;;;;;;;;;;;10.30;95.10;;;;;;5078950;28;19932;-78
2022/09/30 06:58:02;;;;;;;;;;;10.30;95.10;;;;;;5076201;28;19984;-77
2022/09/30 07:00:28;;;;;;;;;;;10.30;95.00;;;;;;5076785;28;19932;-77
2022/09/30 07:02:55;;;;;;;;;;;10.30;95.00;;;;;;5075548;28;19954;-78
2022/09/30 07:05:24;;;;;;;;;;;10.30;95.00;;;;;;5074153;28;20019;-76
2022/09/30 07:07:52;;;;;;;;;;;10.30;95.00;;;;;;5071466;28;19935;-77
2022/09/30 07:10:19;;;;;;;;;;;10.40;95.00;;;;;;5075233;28;19939;-77
2022/09/30 07:12:49;;;;;;;;;;;10.30;94.90;;;;;;5068195;28;19939;-77
2022/09/30 07:15:16;;;;;;;;;;;10.40;94.90;;;;;;5073973;28;20015;-79
2022/09/30 07:17:42;;;;;;;;;;;10.40;94.90;;;;;;5075393;28;19939;-79
2022/09/30 07:20:09;;;;;;;;;;;10.40;94.90;;;;;;5069292;28;20493;-75
2022/09/30 07:22:36;;;;;;;;;;;10.40;94.80;;;;;;5076273;28;19932;-77
2022/09/30 07:25:05;;;;;;;;;;;10.40;94.80;;;;;;5072810;28;20588;-77
2022/09/30 07:27:33;;;;;;;;;;;10.50;94.80;;;;;;5071800;28;19924;-76
2022/09/30 07:30:01;;;;;;;;;;;10.50;94.80;;;;;;5077274;28;19928;-78
2022/09/30 07:32:28;;;;;;;;;;;10.50;94.70;;;;;;5073186;28;19971;-76
2022/09/30 07:34:54;;;;;;;;;;;10.50;94.70;;;;;;5076143;28;19940;-76
2022/09/30 07:37:21;;;;;;;;;;;10.50;94.60;;;;;;5076785;28;19935;-76
2022/09/30 07:39:48;;;;;;;;;;;10.50;94.60;;;;;;5076575;28;19928;-78
2022/09/30 07:42:18;;;;;;;;;;;10.50;94.90;;;;;;5077648;28;20765;-76
2022/09/30 07:44:45;;;;;;;;;;;10.60;94.60;;;;;;5075987;28;19935;-77
2022/09/30 07:47:13;;;;;;;;;;;10.60;94.60;;;;;;5075508;28;19932;-76
2022/09/30 07:49:40;;;;;;;;;;;10.50;94.50;;;;;;5078312;28;19927;-76
2022/09/30 07:52:08;;;;;;;;;;;10.60;94.50;;;;;;5070283;28;19932;-76
2022/09/30 07:54:35;;;;;;;;;;;10.60;94.50;;;;;;5076264;28;20032;-77
2022/09/30 07:57:02;;;;;;;;;;;10.60;94.80;;;;;;5068598;28;19932;-75
2022/09/30 07:59:31;;;;;;;;;;;10.70;94.50;;;;;;5075461;28;19928;-76
2022/09/30 08:01:58;;;;;;;;;;;10.70;94.50;;;;;;5073520;28;19932;-77
2022/09/30 08:04:25;;;;;;;;;;;10.70;94.50;;;;;;5076729;28;20006;-77
2022/09/30 08:06:53;;;;;;;;;;;10.70;94.40;;;;;;5075859;28;19967;-76
2022/09/30 08:09:20;;;;;;;;;;;10.70;94.40;;;;;;5077274;28;19932;-78
2022/09/30 08:11:47;;;;;;;;;;;10.70;94.40;;;;;;5074541;28;19932;-77
2022/09/30 08:14:14;;;;;;;;;;;10.80;94.40;;;;;;5070795;28;19929;-78
2022/09/30 08:16:42;;;;;;;;;;;10.80;94.40;;;;;;5078362;28;19935;-77
2022/09/30 08:19:12;;;;;;;;;;;10.80;94.40;;;;;;5075934;28;19928;-77
2022/09/30 08:21:39;;;;;;;;;;;10.80;94.40;;;;;;5079036;28;19932;-76
2022/09/30 08:24:05;;;;;;;;;;;10.80;94.30;;;;;;5084764;28;19935;-75
2022/09/30 08:26:32;;;;;;;;;;;10.90;94.30;;;;;;5079398;28;19929;-77
2022/09/30 08:28:59;;;;;;;;;;;10.90;94.30;;;;;;5083990;28;20537;-77
2022/09/30 08:31:26;;;;;;;;;;;10.90;94.30;;;;;;5082260;28;19934;-77
2022/09/30 08:33:54;;;;;;;;;;;10.90;94.30;;;;;;5083524;28;19934;-76
2022/09/30 08:36:22;;;;;;;;;;;11.00;94.30;;;;;;5081728;28;19928;-76
2022/09/30 08:38:48;;;;;;;;;;;11.00;94.30;;;;;;5082989;28;19927;-78
2022/09/30 08:41:21;;;;;;;;;;;11.00;94.20;;;;;;5078493;28;19935;-78
2022/09/30 08:43:55;;;;;;;;;;;11.00;94.60;;;;;;5073511;28;19932;-76
2022/09/30 08:46:26;;;;;;;;;;;11.10;94.50;;;;;;5077626;28;19935;-78
2022/09/30 08:48:59;;;;;;;;;;;11.10;94.50;;;;;;5077546;28;19935;-78
2022/09/30 08:51:30;;;;;;;;;;;11.20;94.50;;;;;;5082029;28;19928;-78
2022/09/30 08:53:57;;;;;;;;;;;11.20;94.40;;;;;;5084347;28;19924;-76
2022/09/30 08:56:25;;;;;;;;;;;11.20;94.30;;;;;;5082045;28;19928;-77
2022/09/30 08:58:55;;;;;;;;;;;11.20;94.30;;;;;;5083259;28;19932;-78
2022/09/30 09:01:26;;;;;;;;;;;11.30;94.20;;;;;;5083658;28;19928;-78
2022/09/30 09:03:54;;;;;;;;;;;11.30;94.10;;;;;;5083280;28;19928;-78
2022/09/30 09:06:26;;;;;;;;;;;11.30;94.10;;;;;;5078852;28;19935;-77
2022/09/30 09:08:56;;;;;;;;;;;11.40;94.00;;;;;;5079657;28;20384;-77
2022/09/30 09:11:37;;;;;;;;;;;11.40;94.00;;;;;;5077062;28;20720;-77
2022/09/30 09:14:06;;;;;;;;;;;11.40;94.00;;;;;;5080410;28;20684;-78
2022/09/30 09:16:35;;;;;;;;;;;11.40;94.00;;;;;;5081074;28;19935;-78
2022/09/30 09:19:09;;;;;;;;;;;11.40;94.00;;;;;;5077489;28;20327;-76
2022/09/30 09:21:41;;;;;;;;;;;11.50;94.00;;;;;;5079214;28;20315;-79
2022/09/30 09:24:13;;;;;;;;;;;11.50;94.00;;;;;;5080330;28;20297;-77
2022/09/30 09:26:40;;;;;;;;;;;11.50;93.90;;;;;;5077942;28;19935;-77
2022/09/30 09:29:15;;;;;;;;;;;11.50;93.90;;;;;;5073388;28;19928;-78
2022/09/30 09:31:42;;;;;;;;;;;11.60;93.90;;;;;;5079518;28;19928;-78
2022/09/30 09:34:10;;;;;;;;;;;11.60;93.90;;;;;;5081864;28;19939;-79
2022/09/30 09:36:46;;;;;;;;;;;11.60;93.90;;;;;;5080806;28;19934;-79
2022/09/30 09:39:21;;;;;;;;;;;11.60;93.80;;;;;;5074728;28;19955;-77
2022/09/30 09:41:52;;;;;;;;;;;11.60;93.80;;;;;;5079083;28;19935;-77
2022/09/30 09:44:23;;;;;;;;;;;11.70;93.80;;;;;;5074885;28;19928;-77
2022/09/30 09:46:54;;;;;;;;;;;11.70;93.80;;;;;;5080155;28;20101;-79
2022/09/30 09:49:38;;;;;;;;;;;11.80;93.90;;;;;;5073801;28;20384;-79
2022/09/30 09:52:32;;;;;;;;;;;11.70;93.80;;;;;;5073484;28;19934;-78
2022/09/30 09:55:00;;;;;;;;;;;11.80;93.80;;;;;;5070306;28;20287;-79
2022/09/30 09:57:31;;;;;;;;;;;11.90;93.70;;;;;;5080725;28;20659;-79
2022/09/30 09:59:58;;;;;;;;;;;11.90;93.60;;;;;;5078488;28;19997;-79
2022/09/30 10:02:26;;;;;;;;;;;11.90;93.60;;;;;;5075417;28;19928;-78
2022/09/30 10:04:58;;;;;;;;;;;12.00;93.50;;;;;;5073646;28;19928;-77
2022/09/30 10:07:27;;;;;;;;;;;12.00;93.50;;;;;;5075955;28;19927;-77
2022/09/30 10:10:07;;;;;;;;;;;12.10;93.50;;;;;;5080644;28;19928;-78
2022/09/30 10:12:34;;;;;;;;;;;12.10;93.30;;;;;;5076726;28;19935;-78
2022/09/30 10:15:02;;;;;;;;;;;12.20;93.20;;;;;;5078739;28;19932;-79
2022/09/30 10:17:29;;;;;;;;;;;12.30;93.10;;;;;;5074104;28;19951;-78
2022/09/30 10:19:59;;;;;;;;;;;12.30;93.50;;;;;;5076245;28;19985;-79
2022/09/30 10:22:29;;;;;;;;;;;12.40;92.90;;;;;;5077179;28;21158;-78
2022/09/30 10:25:25;;;;;;;;;;;12.50;92.80;;;;;;5075930;28;19932;-79
2022/09/30 10:27:58;;;;;;;;;;;12.60;92.50;;;;;;5034814;28;19952;-78
2022/09/30 10:30:36;;;;;;;;;;;12.70;92.20;;;;;;5063843;28;19933;-76
2022/09/30 10:33:03;;;;;;;;;;;12.80;92.00;;;;;;5071952;28;20436;-80
2022/09/30 10:35:30;;;;;;;;;;;13.00;92.00;;;;;;5078430;28;19928;-77
2022/09/30 10:37:59;;;;;;;;;;;13.10;91.20;;;;;;5080143;28;19924;-78
2022/09/30 10:40:27;;;;;;;;;;;13.10;91.10;;;;;;5082999;28;19956;-78
2022/09/30 10:42:55;;;;;;;;;;;13.20;91.30;;;;;;5071899;28;20017;-77
2022/09/30 10:45:23;;;;;;;;;;;13.30;91.40;;;;;;5077536;28;19928;-79
2022/09/30 10:47:51;;;;;;;;;;;13.30;91.10;;;;;;5075745;28;20317;-79
2022/09/30 10:50:20;;;;;;;;;;;13.40;91.10;;;;;;5073721;28;19928;-78
2022/09/30 10:52:49;;;;;;;;;;;13.50;91.10;;;;;;5075251;28;19940;-79
2022/09/30 10:55:28;;;;;;;;;;;13.60;91.00;;;;;;5074317;28;19935;-78
2022/09/30 10:57:58;;;;;;;;;;;13.60;90.70;;;;;;5075399;28;19997;-77
2022/09/30 11:00:26;;;;;;;;;;;13.80;90.60;;;;;;5075898;28;19935;-78
2022/09/30 11:02:55;;;;;;;;;;;13.80;90.50;;;;;;5081579;28;19936;-79
2022/09/30 11:05:23;;;;;;;;;;;13.90;89.60;;;;;;5086345;28;19932;-79
2022/09/30 11:07:53;;;;;;;;;;;14.10;89.30;;;;;;5082120;28;20002;-78
2022/09/30 11:10:30;;;;;;;;;;;14.10;88.70;;;;;;5084842;28;19928;-80
2022/09/30 11:13:04;;;;;;;;;;;14.10;88.80;;;;;;5081418;28;20381;-78
2022/09/30 11:15:32;;;;;;;;;;;14.20;89.00;;;;;;5070590;28;20746;-78
2022/09/30 11:18:00;;;;;;;;;;;14.30;89.10;;;;;;5074582;28;20780;-77
2022/09/30 11:20:29;;;;;;;;;;;14.40;89.10;;;;;;5080771;28;19933;-79
2022/09/30 11:22:58;;;;;;;;;;;14.40;88.60;;;;;;5070425;28;19927;-77
2022/09/30 11:25:28;;;;;;;;;;;14.40;88.80;;;;;;5078570;28;19932;-79
2022/09/30 11:28:03;;;;;;;;;;;14.40;88.40;;;;;;5077363;28;19967;-77
2022/09/30 11:30:36;;;;;;;;;;;14.40;88.20;;;;;;5074217;28;19940;-78
2022/09/30 11:33:09;;;;;;;;;;;14.50;88.00;;;;;;5075436;28;19928;-80
2022/09/30 11:35:40;;;;;;;;;;;14.40;88.70;;;;;;5073290;28;19932;-79
2022/09/30 11:38:10;;;;;;;;;;;14.40;88.80;;;;;;5079619;28;19931;-78
2022/09/30 11:40:38;;;;;;;;;;;14.50;88.40;;;;;;5076875;28;21294;-77
2022/09/30 11:43:14;;;;;;;;;;;14.50;88.70;;;;;;5073212;28;19928;-79
2022/09/30 11:45:53;;;;;;;;;;;14.60;88.70;;;;;;5077576;28;19932;-78
2022/09/30 11:48:35;;;;;;;;;;;14.60;88.40;;;;;;5072322;28;19932;-78
2022/09/30 11:51:08;;;;;;;;;;;14.60;88.40;;;;;;5075154;28;19938;-78
2022/09/30 11:53:41;;;;;;;;;;;14.70;88.30;;;;;;5076644;28;19928;-78
2022/09/30 11:56:17;;;;;;;;;;;14.60;88.30;;;;;;5076091;28;20391;-78
2022/09/30 11:58:47;;;;;;;;;;;14.60;88.30;;;;;;5082871;28;19962;-79
2022/09/30 12:01:21;;;;;;;;;;;14.60;88.30;;;;;;5078757;28;20391;-80
2022/09/30 12:03:53;;;;;;;;;;;14.70;88.20;;;;;;5078152;28;20309;-78
2022/09/30 12:06:23;;;;;;;;;;;14.60;88.20;;;;;;5084010;28;19928;-78
2022/09/30 12:08:55;;;;;;;;;;;14.70;88.30;;;;;;5077704;28;19977;-78
2022/09/30 12:11:33;;;;;;;;;;;14.70;87.80;;;;;;5077088;28;19928;-78
2022/09/30 12:14:03;;;;;;;;;;;14.70;87.80;;;;;;5077637;28;19928;-78
2022/09/30 12:16:32;;;;;;;;;;;14.70;87.30;;;;;;5076778;28;19991;-78
2022/09/30 12:19:02;;;;;;;;;;;14.70;87.50;;;;;;5079698;28;19943;-78
2022/09/30 12:21:31;;;;;;;;;;;14.80;87.80;;;;;;5076581;28;20396;-78
2022/09/30 12:24:00;;;;;;;;;;;14.90;87.30;;;;;;5077987;28;19981;-78
2022/09/30 12:26:27;;;;;;;;;;;15.00;86.40;;;;;;5083286;28;19932;-81
2022/09/30 12:31:53;;;;;;;;;;;15.10;86.60;;;;;;5078649;28;20332;-81
2022/09/30 12:34:27;;;;;;;;;;;15.20;86.30;;;;;;5083974;28;19932;-81
2022/09/30 12:37:01;;;;;;;;;;;15.20;86.10;;;;;;5078720;28;19934;-79
2022/09/30 12:39:38;;;;;;;;;;;15.30;85.90;;;;;;5078016;28;19965;-80
2022/09/30 12:42:17;;;;;;;;;;;15.30;85.70;;;;;;5077170;28;19928;-80
2022/09/30 12:44:58;;;;;;;;;;;15.30;85.50;;;;;;5074254;28;19932;-80
2022/09/30 12:47:31;;;;;;;;;;;15.30;85.80;;;;;;5076699;28;19939;-80
2022/09/30 12:49:59;;;;;;;;;;;15.30;85.80;;;;;;5073273;28;19950;-80
2022/09/30 12:52:30;;;;;;;;;;;15.20;85.80;;;;;;5074197;28;19935;-80
2022/09/30 12:54:58;;;;;;;;;;;15.20;86.10;;;;;;5071875;28;19939;-80
2022/09/30 12:57:27;;;;;;;;;;;15.20;86.10;;;;;;5075249;28;19935;-79
2022/09/30 12:59:54;;;;;;;;;;;15.20;85.90;;;;;;5069913;28;19935;-80
2022/09/30 13:02:29;;;;;;;;;;;15.20;85.90;;;;;;5075368;28;19997;-80
2022/09/30 13:05:17;;;;;;;;;;;15.20;86.20;;;;;;5079841;28;19928;-79
2022/09/30 13:08:08;;;;;;;;;;;15.30;86.20;;;;;;5073976;28;20339;-80
2022/09/30 13:10:43;;;;;;;;;;;15.30;86.10;;;;;;5072425;28;19928;-79
2022/09/30 13:13:16;;;;;;;;;;;15.40;86.00;;;;;;5073686;28;20432;-80
2022/09/30 13:15:44;;;;;;;;;;;15.40;85.90;;;;;;5079187;28;19932;-80
2022/09/30 13:18:29;;;;;;;;;;;15.40;85.80;;;;;;5079947;28;19939;-80
2022/09/30 13:21:15;;;;;;;;;;;15.40;85.80;;;;;;5074397;28;19928;-79
2022/09/30 13:23:43;;;;;;;;;;;15.40;85.80;;;;;;5077708;28;19928;-80
2022/09/30 13:26:24;;;;;;;;;;;15.40;85.80;;;;;;5075949;28;20301;-80
2022/09/30 13:28:52;;;;;;;;;;;15.40;85.60;;;;;;5073718;28;20774;-81
2022/09/30 13:31:20;;;;;;;;;;;15.40;85.00;;;;;;5076361;28;19928;-80
2022/09/30 13:33:58;;;;;;;;;;;15.50;85.30;;;;;;5079160;28;20303;-80
2022/09/30 13:36:28;;;;;;;;;;;15.50;85.60;;;;;;5076739;28;20024;-80
2022/09/30 13:39:14;;;;;;;;;;;15.50;85.00;;;;;;5071411;28;19943;-80
2022/09/30 13:41:40;;;;;;;;;;;15.50;84.50;;;;;;5077726;28;19928;-79
2022/09/30 13:44:09;;;;;;;;;;;15.60;84.60;;;;;;5076541;28;19938;-80
2022/09/30 13:46:41;;;;;;;;;;;15.70;84.70;;;;;;5077329;28;20445;-80
2022/09/30 13:49:12;;;;;;;;;;;15.70;84.70;;;;;;5074899;28;19932;-80
2022/09/30 13:51:40;;;;;;;;;;;15.80;84.70;;;;;;5076740;28;20317;-79
2022/09/30 13:54:09;;;;;;;;;;;15.90;83.40;;;;;;5076433;28;20754;-80
2022/09/30 13:56:36;;;;;;;;;;;16.00;83.40;;;;;;5079989;28;19928;-80
2022/09/30 13:59:27;;;;;;;;;;;16.10;82.90;;;;;;5075845;28;19932;-81
2022/09/30 14:02:08;;;;;;;;;;;16.10;83.20;;;;;;5064336;28;19936;-80
2022/09/30 14:04:44;;;;;;;;;;;16.20;82.20;;;;;;5070421;28;19943;-79
2022/09/30 14:07:17;;;;;;;;;;;16.20;81.70;;;;;;5071017;28;19928;-79
2022/09/30 14:09:50;;;;;;;;;;;16.20;81.60;;;;;;5073860;28;19927;-80
2022/09/30 14:12:27;;;;;;;;;;;16.20;81.00;;;;;;5077575;28;19963;-80
2022/09/30 14:15:13;;;;;;;;;;;16.20;81.60;;;;;;5076160;28;21173;-76
2022/09/30 14:17:48;;;;;;;;;;;16.20;80.50;;;;;;5070994;28;20007;-78
2022/09/30 14:20:23;;;;;;;;;;;16.30;80.50;;;;;;5069709;28;19935;-77
2022/09/30 14:22:52;;;;;;;;;;;16.20;80.80;;;;;;5068294;28;19939;-76
2022/09/30 14:25:19;;;;;;;;;;;16.30;81.50;;;;;;5078913;28;20293;-77
2022/09/30 14:27:57;;;;;;;;;;;16.30;81.50;;;;;;5074045;28;20047;-78
2022/09/30 14:30:24;;;;;;;;;;;16.40;81.60;;;;;;5073395;28;20456;-77
2022/09/30 14:32:53;;;;;;;;;;;16.40;80.60;;;;;;5075838;28;19932;-76
2022/09/30 14:35:21;;;;;;;;;;;16.40;81.10;;;;;;5071937;28;19963;-76